Time;durP1;ratioP1;P1;durP2;ratioP2;P2;SDS_P1;SDS_P2;PMS_P1;PMS_P2;Temp;Humidity;BMP_temperature;BMP_pressure;BME280_temperature;BME280_humidity;BME280_pressure;Samples;Min_cycle;Max_cycle;Signal;HPM_P1;HPM_P2
2023/04/28 00:00:49;;;;;;;24.90;22.50;;;4.30;87.90;;;;;;4956980;28;20197;-87
2023/04/28 00:03:15;;;;;;;24.20;22.00;;;4.30;88.10;;;;;;4957067;28;20542;-87
2023/04/28 00:05:41;;;;;;;23.73;21.53;;;4.30;88.20;;;;;;4939738;29;20187;-87
2023/04/28 00:08:06;;;;;;;25.20;22.53;;;4.30;88.20;;;;;;4939568;29;20207;-87
2023/04/28 00:10:35;;;;;;;14.97;13.57;;;4.30;88.10;;;;;;4939595;29;20556;-86
2023/04/28 00:13:01;;;;;;;15.37;13.83;;;4.20;88.00;;;;;;4939714;29;20191;-86
2023/04/28 00:15:26;;;;;;;23.77;21.67;;;4.10;88.00;;;;;;4939680;29;20190;-86
2023/04/28 00:17:53;;;;;;;25.07;22.77;;;4.00;88.00;;;;;;4939584;29;20784;-86
2023/04/28 00:20:18;;;;;;;23.47;21.37;;;4.00;88.20;;;;;;4956389;28;20181;-86
2023/04/28 00:22:44;;;;;;;24.50;21.97;;;4.00;88.30;;;;;;4939687;29;20210;-86
2023/04/28 00:25:09;;;;;;;16.53;13.63;;;4.00;88.30;;;;;;4956863;28;20176;-86
2023/04/28 00:27:35;;;;;;;15.70;13.97;;;4.00;88.20;;;;;;4956513;28;20208;-86
2023/04/28 00:30:01;;;;;;;23.87;21.57;;;4.00;88.20;;;;;;4939502;29;20182;-86
2023/04/28 00:32:27;;;;;;;24.67;22.67;;;3.90;88.00;;;;;;4939780;29;20187;-86
2023/04/28 00:34:52;;;;;;;25.97;23.67;;;3.80;88.00;;;;;;4939319;29;20563;-87
2023/04/28 00:37:19;;;;;;;26.23;23.93;;;3.70;88.10;;;;;;4939849;29;20231;-87
2023/04/28 00:39:46;;;;;;;17.03;14.60;;;3.70;88.10;;;;;;4939605;29;20271;-87
2023/04/28 00:42:12;;;;;;;16.97;14.53;;;3.60;88.10;;;;;;4956289;29;20203;-87
2023/04/28 00:44:38;;;;;;;21.83;15.30;;;3.50;88.00;;;;;;4956261;29;20205;-87
2023/04/28 00:47:04;;;;;;;25.67;23.37;;;3.50;87.90;;;;;;4938962;29;20621;-87
2023/04/28 00:49:30;;;;;;;26.97;24.23;;;3.40;87.90;;;;;;4956441;29;20171;-87
2023/04/28 00:51:56;;;;;;;27.37;24.50;;;3.30;87.80;;;;;;4938859;29;20184;-87
2023/04/28 00:54:22;;;;;;;28.07;25.60;;;3.30;87.90;;;;;;4938851;29;20182;-87
2023/04/28 00:56:48;;;;;;;18.87;15.83;;;3.30;87.90;;;;;;4938849;29;20203;-87
2023/04/28 00:59:13;;;;;;;18.13;14.93;;;3.30;87.90;;;;;;4938770;29;20175;-87
2023/04/28 01:01:39;;;;;;;27.80;25.10;;;3.20;87.90;;;;;;4955947;29;20548;-87
2023/04/28 01:04:05;;;;;;;27.83;25.30;;;3.20;88.00;;;;;;4938756;29;20185;-86
2023/04/28 01:06:31;;;;;;;26.47;24.13;;;3.20;88.00;;;;;;4938614;29;20198;-87
2023/04/28 01:08:57;;;;;;;27.17;24.57;;;3.20;88.00;;;;;;4938662;29;20195;-86
2023/04/28 01:11:22;;;;;;;17.50;15.23;;;3.10;87.90;;;;;;4956089;28;20203;-86
2023/04/28 01:13:48;;;;;;;17.33;15.43;;;3.00;87.90;;;;;;4955758;29;20191;-86
2023/04/28 01:16:14;;;;;;;26.10;23.80;;;3.00;88.00;;;;;;4955821;28;20697;-86
2023/04/28 01:18:43;;;;;;;25.23;22.87;;;2.90;88.00;;;;;;4938450;29;20188;-86
2023/04/28 01:21:09;;;;;;;24.93;22.83;;;2.90;88.10;;;;;;4938461;29;20214;-86
2023/04/28 01:23:34;;;;;;;25.40;23.10;;;2.90;88.10;;;;;;4938375;29;20246;-86
2023/04/28 01:26:00;;;;;;;14.90;13.40;;;2.80;88.20;;;;;;4955584;28;20185;-86
2023/04/28 01:28:26;;;;;;;15.20;13.70;;;2.80;88.10;;;;;;4955575;28;20175;-87
2023/04/28 01:30:51;;;;;;;21.27;15.03;;;2.90;88.10;;;;;;4937790;29;20183;-86
2023/04/28 01:33:17;;;;;;;25.37;23.00;;;2.80;88.10;;;;;;4955023;28;20171;-86
2023/04/28 01:35:42;;;;;;;27.43;24.93;;;2.80;88.00;;;;;;4938266;29;20314;-86
2023/04/28 01:38:08;;;;;;;26.73;24.13;;;2.60;87.90;;;;;;4938081;29;20249;-86
2023/04/28 01:40:33;;;;;;;28.37;25.77;;;2.60;88.00;;;;;;4938283;29;20668;-86
2023/04/28 01:42:59;;;;;;;21.67;15.33;;;2.50;88.10;;;;;;4955813;28;20207;-86
2023/04/28 01:45:24;;;;;;;17.67;14.90;;;2.40;88.10;;;;;;4955268;29;20175;-86
2023/04/28 01:47:50;;;;;;;27.47;24.73;;;2.30;88.30;;;;;;4955211;28;20283;-86
2023/04/28 01:50:16;;;;;;;27.27;24.60;;;2.30;88.40;;;;;;4938128;29;20183;-86
2023/04/28 01:52:41;;;;;;;27.07;24.57;;;2.30;88.60;;;;;;4938022;29;20278;-86
2023/04/28 01:55:07;;;;;;;27.03;24.30;;;2.30;88.70;;;;;;4938023;29;20193;-86
2023/04/28 01:57:34;;;;;;;19.83;15.13;;;2.30;88.70;;;;;;4938025;29;20199;-86
2023/04/28 02:00:00;;;;;;;17.27;15.33;;;2.30;88.80;;;;;;4938011;29;20186;-86
2023/04/28 02:02:26;;;;;;;24.87;22.23;;;2.30;88.80;;;;;;4937925;29;20206;-86
2023/04/28 02:04:51;;;;;;;26.87;24.40;;;2.20;88.70;;;;;;4937894;29;20180;-86
2023/04/28 02:07:17;;;;;;;26.97;24.37;;;2.20;88.80;;;;;;4937763;29;20708;-86
2023/04/28 02:09:42;;;;;;;27.13;24.67;;;2.20;88.80;;;;;;4937919;29;20555;-86
2023/04/28 02:12:08;;;;;;;18.43;14.03;;;2.10;88.80;;;;;;4955674;29;20199;-86
2023/04/28 02:14:33;;;;;;;22.53;16.87;;;2.10;88.90;;;;;;4937808;29;20267;-86
2023/04/28 02:16:59;;;;;;;28.83;21.67;;;2.10;88.90;;;;;;4954885;28;20674;-86
2023/04/28 02:19:25;;;;;;;27.10;24.70;;;2.10;88.90;;;;;;4937804;29;20174;-86
2023/04/28 02:21:50;;;;;;;29.60;26.63;;;2.10;89.00;;;;;;4937644;29;20210;-86
2023/04/28 02:24:16;;;;;;;26.93;24.53;;;2.10;89.00;;;;;;4938264;29;20175;-86
2023/04/28 02:26:41;;;;;;;16.93;14.50;;;2.10;89.00;;;;;;4937779;29;20199;-87
2023/04/28 02:29:07;;;;;;;19.10;15.80;;;2.10;88.90;;;;;;4937841;29;20191;-87
2023/04/28 02:31:32;;;;;;;22.43;16.50;;;2.00;88.90;;;;;;4938071;29;20187;-87
2023/04/28 02:33:58;;;;;;;27.17;24.47;;;2.00;89.00;;;;;;4937880;29;20277;-86
2023/04/28 02:36:24;;;;;;;36.37;26.00;;;2.00;89.10;;;;;;4937861;29;20215;-87
2023/04/28 02:38:49;;;;;;;29.63;26.43;;;2.00;89.20;;;;;;4938064;29;20187;-86
2023/04/28 02:41:15;;;;;;;37.63;25.50;;;1.90;89.30;;;;;;4937672;29;20211;-87
2023/04/28 02:43:41;;;;;;;26.23;19.30;;;1.90;89.60;;;;;;4939745;29;20661;-87
2023/04/28 02:46:06;;;;;;;30.80;18.90;;;2.00;89.80;;;;;;4941254;28;20179;-87
2023/04/28 02:48:34;;;;;;;32.23;27.77;;;2.00;90.00;;;;;;4942463;29;20566;-86
2023/04/28 02:51:00;;;;;;;34.97;27.17;;;2.10;90.10;;;;;;4941602;29;20180;-86
2023/04/28 02:53:26;;;;;;;31.57;26.50;;;2.10;90.30;;;;;;4958370;28;20213;-86
2023/04/28 02:55:52;;;;;;;29.73;26.57;;;2.10;90.40;;;;;;4958336;29;20206;-87
2023/04/28 02:58:17;;;;;;;26.87;20.37;;;2.10;90.60;;;;;;4941087;29;20626;-86
2023/04/28 03:00:43;;;;;;;27.00;19.87;;;2.00;90.70;;;;;;4941068;29;20184;-86
2023/04/28 03:03:09;;;;;;;33.97;26.40;;;2.00;90.80;;;;;;4940922;29;20233;-86
2023/04/28 03:05:34;;;;;;;34.83;26.30;;;2.00;90.90;;;;;;4941018;29;20178;-87
2023/04/28 03:08:00;;;;;;;33.67;25.40;;;2.00;91.00;;;;;;4940969;29;20208;-87
2023/04/28 03:10:25;;;;;;;39.53;28.00;;;2.00;91.00;;;;;;4958002;28;20193;-86
2023/04/28 03:12:51;;;;;;;30.87;18.80;;;1.90;91.00;;;;;;4941021;29;20183;-87
2023/04/28 03:15:16;;;;;;;30.07;20.97;;;1.80;91.00;;;;;;4940863;29;20653;-87
2023/04/28 03:17:43;;;;;;;34.03;27.43;;;1.80;91.10;;;;;;4940808;29;20206;-87
2023/04/28 03:20:09;;;;;;;37.73;26.93;;;1.80;91.20;;;;;;4940723;29;20186;-86
2023/04/28 03:22:35;;;;;;;40.90;27.90;;;1.80;91.20;;;;;;4957776;28;20210;-86
2023/04/28 03:25:01;;;;;;;39.33;29.00;;;1.80;91.30;;;;;;4940596;29;20189;-87
2023/04/28 03:27:26;;;;;;;34.37;21.67;;;1.90;91.40;;;;;;4940877;29;20696;-87
2023/04/28 03:29:52;;;;;;;33.83;22.30;;;1.90;91.40;;;;;;4940552;29;20645;-87
2023/04/28 03:32:17;;;;;;;38.17;28.07;;;1.90;91.40;;;;;;4940538;29;20198;-87
2023/04/28 03:34:43;;;;;;;36.03;27.10;;;1.90;91.40;;;;;;4940350;29;20183;-87
2023/04/28 03:37:08;;;;;;;40.13;27.73;;;2.00;91.50;;;;;;4940352;29;20254;-87
2023/04/28 03:39:34;;;;;;;31.93;27.40;;;2.00;91.50;;;;;;4957512;28;20178;-87
2023/04/28 03:42:00;;;;;;;34.87;20.10;;;2.00;91.50;;;;;;4940150;29;20260;-87
2023/04/28 03:44:25;;;;;;;36.97;21.77;;;2.00;91.60;;;;;;4940278;29;20204;-87
2023/04/28 03:46:51;;;;;;;35.90;27.20;;;2.00;91.60;;;;;;4940426;29;20199;-86
2023/04/28 03:49:16;;;;;;;32.13;26.87;;;2.00;91.60;;;;;;4957390;28;20177;-87
2023/04/28 03:51:42;;;;;;;35.17;26.93;;;2.00;91.60;;;;;;4940214;29;20186;-87
2023/04/28 03:54:07;;;;;;;40.53;29.13;;;2.00;91.60;;;;;;4956640;28;20658;-87
2023/04/28 03:56:33;;;;;;;26.87;20.57;;;2.00;91.60;;;;;;4957067;28;20570;-87
2023/04/28 03:58:59;;;;;;;58.80;22.33;;;2.10;91.60;;;;;;4939958;29;20185;-87
2023/04/28 04:01:24;;;;;;;31.23;26.33;;;2.10;91.60;;;;;;4957236;29;20245;-87
2023/04/28 04:03:50;;;;;;;32.97;26.67;;;2.20;91.70;;;;;;4939877;29;20177;-87
2023/04/28 04:06:16;;;;;;;40.53;25.80;;;2.20;91.60;;;;;;4939739;28;20285;-87
2023/04/28 04:08:42;;;;;;;35.77;26.83;;;2.20;91.70;;;;;;4956966;28;20171;-87
2023/04/28 04:11:07;;;;;;;36.83;21.57;;;2.30;91.70;;;;;;4939609;29;20210;-87
2023/04/28 04:13:33;;;;;;;34.03;22.00;;;2.30;91.70;;;;;;4957302;29;20259;-87
2023/04/28 04:15:58;;;;;;;33.70;26.50;;;2.40;91.70;;;;;;4939622;28;20552;-87
2023/04/28 04:18:24;;;;;;;37.87;27.70;;;2.40;91.70;;;;;;4939667;29;20553;-87
2023/04/28 04:20:52;;;;;;;40.07;25.47;;;2.50;91.70;;;;;;4956785;29;20175;-87
2023/04/28 04:23:18;;;;;;;32.03;26.20;;;2.60;91.60;;;;;;4956631;29;20199;-87
2023/04/28 04:25:43;;;;;;;30.90;20.40;;;2.70;91.70;;;;;;4957155;29;20638;-87
2023/04/28 04:28:09;;;;;;;33.30;21.83;;;2.80;91.70;;;;;;4956941;28;20194;-87
2023/04/28 04:30:35;;;;;;;36.00;25.43;;;2.90;91.70;;;;;;4942956;29;20203;-87
2023/04/28 04:33:00;;;;;;;32.50;23.87;;;3.00;91.60;;;;;;4939397;29;20185;-87
2023/04/28 04:35:26;;;;;;;29.63;24.63;;;3.10;91.50;;;;;;4939387;29;20238;-88
2023/04/28 04:37:51;;;;;;;34.50;25.10;;;3.20;91.50;;;;;;4939178;29;20203;-88
2023/04/28 04:40:17;;;;;;;30.97;20.43;;;3.30;91.40;;;;;;4939222;29;20222;-88
2023/04/28 04:42:42;;;;;;;30.73;21.17;;;3.30;91.40;;;;;;4939195;29;20231;-88
2023/04/28 04:45:08;;;;;;;31.07;23.83;;;3.40;91.30;;;;;;4939105;29;20605;-88
2023/04/28 04:47:34;;;;;;;34.63;25.03;;;3.50;91.20;;;;;;4939044;29;20200;-88
2023/04/28 04:49:59;;;;;;;38.87;25.07;;;3.50;91.20;;;;;;4939195;29;20171;-87
2023/04/28 04:52:25;;;;;;;28.63;25.57;;;3.60;91.10;;;;;;4939158;29;20194;-88
2023/04/28 04:54:50;;;;;;;30.20;20.93;;;3.70;91.10;;;;;;4939044;29;20274;-88
2023/04/28 04:57:16;;;;;;;27.47;19.63;;;3.80;91.00;;;;;;4939004;29;20222;-87
2023/04/28 04:59:41;;;;;;;26.90;24.00;;;3.80;90.90;;;;;;4939293;29;20674;-88
2023/04/28 05:02:07;;;;;;;25.13;22.43;;;3.90;90.80;;;;;;4955869;29;20231;-88
2023/04/28 05:04:33;;;;;;;26.67;23.80;;;3.90;90.60;;;;;;4939120;29;20638;-88
2023/04/28 05:06:58;;;;;;;26.47;21.93;;;4.00;90.50;;;;;;4938567;29;20199;-88
2023/04/28 05:09:24;;;;;;;27.17;19.73;;;4.00;90.30;;;;;;4938761;29;20175;-88
2023/04/28 05:11:49;;;;;;;22.10;17.53;;;4.10;90.10;;;;;;4938768;29;20222;-88
2023/04/28 05:14:16;;;;;;;24.43;18.20;;;4.10;89.90;;;;;;4938690;29;20180;-88
2023/04/28 05:16:41;;;;;;;25.43;22.20;;;4.10;89.80;;;;;;4955607;28;20593;-88
2023/04/28 05:19:07;;;;;;;27.80;22.73;;;4.20;89.60;;;;;;4938593;29;20192;-88
2023/04/28 05:21:33;;;;;;;24.80;22.20;;;4.30;89.50;;;;;;4938343;29;20210;-88
2023/04/28 05:23:58;;;;;;;27.87;23.57;;;4.30;89.30;;;;;;4938509;29;20601;-88
2023/04/28 05:26:24;;;;;;;35.07;18.57;;;4.30;89.10;;;;;;4938267;29;20223;-87
2023/04/28 05:28:50;;;;;;;25.57;17.17;;;4.50;89.20;;;;;;4938792;29;20185;-88
2023/04/28 05:31:16;;;;;;;24.73;22.13;;;4.50;89.10;;;;;;4938387;29;20184;-88
2023/04/28 05:33:41;;;;;;;22.03;19.77;;;4.60;89.00;;;;;;4938487;29;20180;-88
2023/04/28 05:36:08;;;;;;;22.90;20.57;;;4.70;88.90;;;;;;4939096;28;20230;-88
2023/04/28 05:38:34;;;;;;;23.10;20.87;;;4.80;88.70;;;;;;4955788;28;20187;-87
2023/04/28 05:41:00;;;;;;;20.37;17.13;;;4.80;88.20;;;;;;4938236;29;20235;-87
2023/04/28 05:43:26;;;;;;;21.27;15.63;;;4.80;88.10;;;;;;4938129;29;20176;-87
2023/04/28 05:45:51;;;;;;;23.93;21.47;;;4.90;87.80;;;;;;4938224;29;20660;-87
2023/04/28 05:48:17;;;;;;;24.47;18.60;;;5.00;87.80;;;;;;4938137;29;20200;-88
2023/04/28 05:50:43;;;;;;;21.87;19.37;;;5.10;87.40;;;;;;4938991;29;20185;-88
2023/04/28 05:53:08;;;;;;;21.30;19.30;;;5.20;87.10;;;;;;4938212;29;20181;-88
2023/04/28 05:55:35;;;;;;;17.30;14.40;;;5.30;86.60;;;;;;4938175;29;20185;-88
2023/04/28 05:58:02;;;;;;;16.00;14.30;;;5.40;86.60;;;;;;4937966;29;20209;-87
2023/04/28 06:00:27;;;;;;;23.97;18.97;;;5.50;86.30;;;;;;4955099;29;20178;-88
2023/04/28 06:02:53;;;;;;;24.17;19.67;;;5.70;86.40;;;;;;4938448;29;20232;-88
2023/04/28 06:05:19;;;;;;;22.23;20.13;;;5.70;85.80;;;;;;4938413;29;20181;-87
2023/04/28 06:07:45;;;;;;;21.07;19.13;;;5.80;85.70;;;;;;4938772;29;20202;-87
2023/04/28 06:10:10;;;;;;;23.13;20.70;;;5.80;84.50;;;;;;4955219;29;20246;-87
2023/04/28 06:12:36;;;;;;;14.97;13.03;;;5.90;84.40;;;;;;4937876;29;20249;-87
2023/04/28 06:15:03;;;;;;;21.17;14.60;;;6.00;84.30;;;;;;4937832;29;20755;-87
2023/04/28 06:17:31;;;;;;;24.40;21.87;;;6.10;84.10;;;;;;4938396;29;20202;-88
2023/04/28 06:19:58;;;;;;;22.30;20.07;;;6.20;83.90;;;;;;4941767;29;20273;-87
2023/04/28 06:22:24;;;;;;;23.73;21.53;;;6.30;83.20;;;;;;4941745;29;20206;-87
2023/04/28 06:24:49;;;;;;;22.10;19.90;;;6.40;82.60;;;;;;4942042;29;20182;-87
2023/04/28 06:27:15;;;;;;;17.03;13.17;;;6.40;82.30;;;;;;4941613;29;20270;-88
2023/04/28 06:29:41;;;;;;;15.03;11.97;;;6.50;82.60;;;;;;4941678;29;20179;-87
2023/04/28 06:32:06;;;;;;;22.00;20.07;;;6.60;82.00;;;;;;4941714;29;20172;-87
2023/04/28 06:34:32;;;;;;;23.03;20.93;;;6.70;81.90;;;;;;4941871;29;20191;-87
2023/04/28 06:36:58;;;;;;;22.50;18.60;;;6.70;81.30;;;;;;4941510;29;20669;-87
2023/04/28 06:39:23;;;;;;;17.07;15.27;;;6.80;80.80;;;;;;4941524;29;20186;-88
2023/04/28 06:41:49;;;;;;;15.13;13.53;;;6.80;80.20;;;;;;4941452;29;20207;-87
2023/04/28 06:44:15;;;;;;;16.33;12.97;;;6.90;80.80;;;;;;4941477;29;20182;-87
2023/04/28 06:46:40;;;;;;;20.77;13.23;;;7.00;81.60;;;;;;4941205;29;20282;-87
2023/04/28 06:49:06;;;;;;;17.47;15.80;;;7.10;80.10;;;;;;4941408;29;20180;-87
2023/04/28 06:51:32;;;;;;;24.27;21.83;;;7.20;79.90;;;;;;4942013;29;20223;-88
2023/04/28 06:53:58;;;;;;;23.43;21.23;;;7.30;80.10;;;;;;4941393;29;20637;-87
2023/04/28 06:56:24;;;;;;;27.73;21.63;;;7.50;78.90;;;;;;4958237;28;20207;-88
2023/04/28 06:58:49;;;;;;;19.63;13.93;;;7.60;78.30;;;;;;4941121;29;20609;-87
2023/04/28 07:01:15;;;;;;;15.87;12.53;;;7.70;77.40;;;;;;4941028;29;20575;-87
2023/04/28 07:03:41;;;;;;;21.63;19.63;;;7.90;77.10;;;;;;4941100;29;20186;-87
2023/04/28 07:06:07;;;;;;;22.50;20.67;;;8.00;77.70;;;;;;4958178;28;20255;-87
2023/04/28 07:08:33;;;;;;;23.57;21.47;;;8.10;75.70;;;;;;4940819;29;20215;-87
2023/04/28 07:11:03;;;;;;;21.73;19.93;;;8.20;74.90;;;;;;4940997;29;20202;-87
2023/04/28 07:13:29;;;;;;;24.70;22.67;;;8.30;73.80;;;;;;4940788;29;20176;-88
2023/04/28 07:15:55;;;;;;;16.00;14.70;;;8.50;71.70;;;;;;4940777;28;20187;-88
2023/04/28 07:18:20;;;;;;;16.63;15.30;;;8.60;70.30;;;;;;4940938;29;20548;-87
2023/04/28 07:20:47;;;;;;;25.23;23.20;;;8.80;69.80;;;;;;4958105;28;20638;-88
2023/04/28 07:23:12;;;;;;;26.63;24.47;;;9.00;71.00;;;;;;4940633;29;20214;-88
2023/04/28 07:25:39;;;;;;;26.63;24.47;;;9.10;69.90;;;;;;4940773;29;20179;-87
2023/04/28 07:28:05;;;;;;;27.37;25.40;;;9.20;68.00;;;;;;4940633;29;20195;-87
2023/04/28 07:30:31;;;;;;;24.70;22.63;;;9.30;68.20;;;;;;4940401;29;20180;-88
2023/04/28 07:32:57;;;;;;;18.00;16.40;;;9.40;68.40;;;;;;4940585;29;20654;-87
2023/04/28 07:35:23;;;;;;;16.63;15.07;;;9.50;67.20;;;;;;4957570;29;20186;-88
2023/04/28 07:37:48;;;;;;;25.07;22.93;;;9.60;65.90;;;;;;4940435;29;20250;-88
2023/04/28 07:40:15;;;;;;;24.23;22.43;;;9.70;66.10;;;;;;4940860;29;20592;-87
2023/04/28 07:42:40;;;;;;;25.63;23.63;;;9.80;65.20;;;;;;4940289;29;20274;-87
2023/04/28 07:45:06;;;;;;;23.80;21.70;;;9.90;64.20;;;;;;4941508;29;20175;-88
2023/04/28 07:47:32;;;;;;;17.07;15.67;;;10.00;64.00;;;;;;4940697;29;20200;-88
2023/04/28 07:49:59;;;;;;;15.50;14.10;;;10.20;64.80;;;;;;4940322;29;20732;-87
2023/04/28 07:52:25;;;;;;;24.37;22.50;;;10.30;63.30;;;;;;4940356;29;20673;-87
2023/04/28 07:54:50;;;;;;;24.77;22.77;;;10.40;61.80;;;;;;4940167;29;20180;-87
2023/04/28 07:57:16;;;;;;;23.07;21.27;;;10.50;62.30;;;;;;4940297;29;20214;-88
2023/04/28 07:59:41;;;;;;;24.90;22.67;;;10.70;61.90;;;;;;4940217;29;20176;-87
2023/04/28 08:02:07;;;;;;;23.63;21.47;;;10.70;60.30;;;;;;4957196;29;20257;-87
2023/04/28 08:04:33;;;;;;;16.27;14.93;;;10.70;58.90;;;;;;4940037;29;20175;-88
2023/04/28 08:06:59;;;;;;;15.87;14.40;;;10.80;60.50;;;;;;4940347;29;20699;-87
2023/04/28 08:09:25;;;;;;;23.47;21.10;;;10.90;61.20;;;;;;4940203;29;20181;-87
2023/04/28 08:11:51;;;;;;;22.43;20.83;;;11.00;61.70;;;;;;4939824;29;20198;-87
2023/04/28 08:14:16;;;;;;;22.67;20.97;;;11.00;60.70;;;;;;4939878;29;20194;-87
2023/04/28 08:16:42;;;;;;;21.30;19.23;;;11.00;59.00;;;;;;4939928;29;20227;-88
2023/04/28 08:19:08;;;;;;;15.40;14.07;;;11.00;58.60;;;;;;4940232;29;20206;-88
2023/04/28 08:21:33;;;;;;;15.63;14.40;;;11.00;59.10;;;;;;4939816;29;20230;-88
2023/04/28 08:23:59;;;;;;;17.30;16.00;;;11.10;58.60;;;;;;4940384;29;20175;-88
2023/04/28 08:26:24;;;;;;;22.57;20.97;;;11.10;58.20;;;;;;4939809;29;20230;-87
2023/04/28 08:28:50;;;;;;;23.67;21.30;;;11.20;57.70;;;;;;4957074;28;20176;-87
2023/04/28 08:31:16;;;;;;;22.40;20.17;;;11.20;57.00;;;;;;4939371;29;20179;-87
2023/04/28 08:33:43;;;;;;;23.47;21.47;;;11.20;56.70;;;;;;4939435;29;20171;-88
2023/04/28 08:36:10;;;;;;;15.27;14.07;;;11.30;58.50;;;;;;4956457;28;20168;-87
2023/04/28 08:38:37;;;;;;;15.47;13.90;;;11.40;59.10;;;;;;4956433;29;20178;-87
2023/04/28 08:41:03;;;;;;;23.20;21.27;;;11.40;58.30;;;;;;4955912;28;20172;-87
2023/04/28 08:43:33;;;;;;;24.13;22.27;;;11.30;55.60;;;;;;4939070;29;20187;-87
2023/04/28 08:46:02;;;;;;;24.37;22.43;;;11.30;57.80;;;;;;4939181;28;20183;-87
2023/04/28 08:48:32;;;;;;;23.57;21.53;;;11.40;58.20;;;;;;4939144;29;20668;-87
2023/04/28 08:50:58;;;;;;;16.73;15.20;;;11.50;59.10;;;;;;4939182;29;20175;-87
2023/04/28 08:53:25;;;;;;;16.40;15.00;;;11.60;58.00;;;;;;4939099;29;20668;-87
2023/04/28 08:55:55;;;;;;;23.83;21.87;;;11.70;56.50;;;;;;4938965;29;20271;-87
2023/04/28 08:58:25;;;;;;;22.97;21.07;;;11.80;56.50;;;;;;4956088;29;20537;-87
2023/04/28 09:00:54;;;;;;;23.83;21.90;;;11.90;56.80;;;;;;4939180;29;20187;-86
2023/04/28 09:03:20;;;;;;;23.40;21.80;;;12.00;58.60;;;;;;4955986;29;20195;-87
2023/04/28 09:05:46;;;;;;;22.07;20.23;;;12.00;56.00;;;;;;4938781;29;20226;-87
2023/04/28 09:08:12;;;;;;;17.60;15.73;;;12.20;58.70;;;;;;4955748;28;20194;-87
2023/04/28 09:10:37;;;;;;;17.13;15.67;;;12.20;56.80;;;;;;4938615;29;20191;-87
2023/04/28 09:13:03;;;;;;;23.20;21.40;;;12.30;55.70;;;;;;4956061;28;20670;-87
2023/04/28 09:15:31;;;;;;;24.77;22.50;;;12.40;57.30;;;;;;4938918;29;20724;-86
2023/04/28 09:17:57;;;;;;;21.87;19.97;;;12.50;56.50;;;;;;4938826;29;20195;-87
2023/04/28 09:20:25;;;;;;;21.47;19.30;;;12.70;56.90;;;;;;4955687;29;20186;-87
2023/04/28 09:22:54;;;;;;;18.27;16.33;;;12.80;56.20;;;;;;4938513;29;20203;-87
2023/04/28 09:25:21;;;;;;;18.07;16.67;;;12.70;54.20;;;;;;4938413;29;20197;-87
2023/04/28 09:27:47;;;;;;;26.17;23.77;;;12.80;56.50;;;;;;4938503;29;20191;-87
2023/04/28 09:30:13;;;;;;;25.47;23.27;;;12.70;53.70;;;;;;4955511;29;20175;-87
2023/04/28 09:32:39;;;;;;;25.60;23.00;;;12.70;54.40;;;;;;4938446;29;20180;-87
2023/04/28 09:35:06;;;;;;;24.33;22.53;;;12.80;55.10;;;;;;4955558;29;20176;-87
2023/04/28 09:37:32;;;;;;;18.33;16.63;;;13.00;53.60;;;;;;4955524;28;20202;-87
2023/04/28 09:40:07;;;;;;;17.07;15.57;;;13.00;55.00;;;;;;4955393;29;20176;-88
2023/04/28 09:42:41;;;;;;;24.43;22.23;;;13.20;54.10;;;;;;4955449;29;20612;-87
2023/04/28 09:45:12;;;;;;;24.47;22.43;;;13.10;54.40;;;;;;4938805;29;20626;-87
2023/04/28 09:47:46;;;;;;;23.90;21.97;;;13.20;53.50;;;;;;4938063;29;20282;-88
2023/04/28 09:50:14;;;;;;;24.20;22.30;;;13.30;54.90;;;;;;4938122;29;20610;-88
2023/04/28 09:52:58;;;;;;;20.10;18.23;;;13.20;53.30;;;;;;4937728;29;20270;-88
2023/04/28 09:55:23;;;;;;;17.70;16.07;;;12.90;53.30;;;;;;4938916;29;20171;-87
2023/04/28 09:57:53;;;;;;;18.33;16.30;;;12.80;53.90;;;;;;4938021;29;20257;-87
2023/04/28 10:00:19;;;;;;;24.70;22.70;;;12.70;54.70;;;;;;4938536;29;20214;-87
2023/04/28 10:02:45;;;;;;;24.77;22.67;;;12.80;55.70;;;;;;4938020;29;20203;-87
2023/04/28 10:05:11;;;;;;;26.17;24.00;;;12.60;54.00;;;;;;4938072;29;20183;-87
2023/04/28 10:07:37;;;;;;;25.10;23.17;;;12.50;54.10;;;;;;4938085;29;20199;-87
2023/04/28 10:10:04;;;;;;;18.60;16.70;;;12.50;55.90;;;;;;4938658;29;20190;-88
2023/04/28 10:12:31;;;;;;;17.37;15.77;;;12.60;57.20;;;;;;4937956;29;20666;-89
2023/04/28 10:14:58;;;;;;;26.20;24.07;;;12.50;54.80;;;;;;4955193;29;20650;-87
2023/04/28 10:17:24;;;;;;;25.10;22.90;;;12.50;55.30;;;;;;4955257;28;20199;-87
2023/04/28 10:19:52;;;;;;;24.77;22.77;;;12.40;55.70;;;;;;4955383;29;20182;-87
2023/04/28 10:22:50;;;;;;;25.03;22.63;;;12.40;57.60;;;;;;4937775;29;20215;-87
2023/04/28 10:25:30;;;;;;;17.20;15.73;;;12.30;57.20;;;;;;4937799;29;20187;-87
2023/04/28 10:27:57;;;;;;;17.20;15.70;;;12.30;56.80;;;;;;4937763;29;20192;-87
2023/04/28 10:30:24;;;;;;;25.47;23.23;;;12.40;55.10;;;;;;4937934;29;20175;-88
2023/04/28 10:33:14;;;;;;;25.30;23.30;;;12.60;56.90;;;;;;4937721;29;20223;-86
2023/04/28 10:35:41;;;;;;;25.30;23.23;;;12.60;54.30;;;;;;4937709;29;20167;-86
2023/04/28 10:38:15;;;;;;;26.30;23.63;;;12.80;55.40;;;;;;4937614;29;20199;-84
2023/04/28 10:40:41;;;;;;;18.60;16.90;;;12.80;55.00;;;;;;4937635;29;20172;-84
2023/04/28 10:43:11;;;;;;;17.60;16.20;;;13.00;55.50;;;;;;4954750;28;20195;-85
2023/04/28 10:45:52;;;;;;;25.30;23.30;;;13.10;54.70;;;;;;4954997;28;20171;-85
2023/04/28 10:48:33;;;;;;;25.73;23.63;;;13.10;54.70;;;;;;4954980;28;20198;-85
2023/04/28 10:51:11;;;;;;;24.93;22.67;;;13.10;54.50;;;;;;4955153;29;20164;-85
2023/04/28 10:53:43;;;;;;;24.30;22.50;;;13.20;53.90;;;;;;4955149;29;20152;-85
2023/04/28 10:56:10;;;;;;;18.27;16.63;;;13.10;53.20;;;;;;4955191;28;20218;-84
2023/04/28 10:58:40;;;;;;;20.57;16.60;;;13.10;54.70;;;;;;4937511;29;20172;-85
2023/04/28 11:01:21;;;;;;;25.07;23.00;;;13.20;54.70;;;;;;4937640;29;20234;-85
2023/04/28 11:03:46;;;;;;;26.33;24.20;;;13.20;53.80;;;;;;4938290;29;20718;-86
2023/04/28 11:06:27;;;;;;;25.07;23.17;;;13.30;54.50;;;;;;4940951;28;20206;-85
2023/04/28 11:09:16;;;;;;;26.37;23.53;;;13.40;54.50;;;;;;4941197;29;20186;-85
2023/04/28 11:11:56;;;;;;;16.57;15.27;;;13.40;55.30;;;;;;4941154;29;20203;-85
2023/04/28 11:14:22;;;;;;;16.63;15.17;;;13.30;54.90;;;;;;4941070;29;20550;-86
2023/04/28 11:16:49;;;;;;;18.33;16.67;;;13.40;55.20;;;;;;4941008;29;20199;-86
2023/04/28 11:19:18;;;;;;;24.73;22.73;;;13.50;55.70;;;;;;4958323;29;20226;-86
2023/04/28 11:21:45;;;;;;;26.57;24.00;;;13.50;54.90;;;;;;4958125;28;20204;-86
2023/04/28 11:24:11;;;;;;;25.63;23.67;;;13.50;54.70;;;;;;4940659;29;20175;-86
2023/04/28 11:26:38;;;;;;;18.37;16.70;;;13.50;55.50;;;;;;4957731;28;20569;-86
2023/04/28 11:29:04;;;;;;;19.50;17.67;;;13.70;56.30;;;;;;4940700;29;20664;-86
2023/04/28 11:31:30;;;;;;;19.37;17.70;;;13.70;55.50;;;;;;4957803;28;20318;-86
2023/04/28 11:34:05;;;;;;;25.33;23.33;;;13.70;55.80;;;;;;4940514;29;20262;-86
2023/04/28 11:36:35;;;;;;;25.90;23.50;;;13.70;55.80;;;;;;4957965;28;20571;-86
2023/04/28 11:39:06;;;;;;;25.40;23.20;;;13.60;54.30;;;;;;4957654;29;20589;-86
2023/04/28 11:41:36;;;;;;;18.90;17.13;;;13.70;57.10;;;;;;4940265;29;20298;-86
2023/04/28 11:44:15;;;;;;;20.13;17.07;;;13.60;54.60;;;;;;4940654;29;20171;-86
2023/04/28 11:46:50;;;;;;;18.43;16.73;;;13.50;53.90;;;;;;4940438;29;20203;-85
2023/04/28 11:49:17;;;;;;;23.47;21.23;;;13.60;55.90;;;;;;4940472;29;20179;-85
2023/04/28 11:51:45;;;;;;;21.80;20.07;;;13.70;56.30;;;;;;4940722;29;20565;-86
2023/04/28 11:54:13;;;;;;;22.37;20.63;;;13.70;53.60;;;;;;4940415;29;20186;-86
2023/04/28 11:56:43;;;;;;;21.53;19.83;;;13.70;54.30;;;;;;4940128;29;20203;-85
2023/04/28 11:59:11;;;;;;;18.77;17.17;;;13.70;53.50;;;;;;4940183;29;20650;-86
2023/04/28 12:01:51;;;;;;;18.67;16.97;;;13.70;54.10;;;;;;4940061;29;20215;-86
2023/04/28 12:04:36;;;;;;;25.87;23.57;;;13.60;54.50;;;;;;4940239;29;20171;-86
2023/04/28 12:07:13;;;;;;;25.53;23.33;;;13.60;55.60;;;;;;4940084;29;20199;-86
2023/04/28 12:10:07;;;;;;;25.20;23.00;;;13.60;55.50;;;;;;4940082;29;20277;-86
2023/04/28 12:12:32;;;;;;;19.40;17.57;;;13.60;58.00;;;;;;4940308;29;20187;-86
2023/04/28 12:15:03;;;;;;;19.80;17.87;;;13.60;54.70;;;;;;4939921;28;20256;-85
2023/04/28 12:17:49;;;;;;;18.77;17.10;;;13.50;56.30;;;;;;4939921;29;20627;-85
2023/04/28 12:21:09;;;;;;;25.13;23.03;;;13.40;57.60;;;;;;4956877;29;20195;-85
2023/04/28 12:25:01;;;;;;;26.37;23.90;;;13.30;56.40;;;;;;4935371;29;20228;-88
2023/04/28 12:38:07;;;;;;;27.33;24.80;;;13.20;55.10;;;;;;4860402;29;20304;-86
2023/04/28 12:41:42;;;;;;;25.23;23.20;;;13.10;56.30;;;;;;4886839;29;20330;-87
2023/04/28 12:44:55;;;;;;;19.37;17.50;;;13.10;56.20;;;;;;4915153;29;20198;-86
2023/04/28 12:50:55;;;;;;;26.00;23.27;;;13.00;55.70;;;;;;4914606;29;20280;-85